sensor_id;sensor_type;location;lat;lon;timestamp;temperature;humidity
57434;DHT22;43277;52.672;6.984;2023-08-24T00:00:41;16.90;99.90
57434;DHT22;43277;52.672;6.984;2023-08-24T00:03:08;16.80;99.90
57434;DHT22;43277;52.672;6.984;2023-08-24T00:05:37;16.80;99.90
57434;DHT22;43277;52.672;6.984;2023-08-24T00:08:11;16.80;99.90
57434;DHT22;43277;52.672;6.984;2023-08-24T00:10:37;16.80;99.90
57434;DHT22;43277;52.672;6.984;2023-08-24T00:13:03;16.70;99.90
57434;DHT22;43277;52.672;6.984;2023-08-24T00:15:29;16.80;99.90
57434;DHT22;43277;52.672;6.984;2023-08-24T00:17:55;16.80;99.90
57434;DHT22;43277;52.672;6.984;2023-08-24T00:20:21;16.70;99.90
57434;DHT22;43277;52.672;6.984;2023-08-24T00:22:48;16.70;99.90
57434;DHT22;43277;52.672;6.984;2023-08-24T00:25:14;16.70;99.90
57434;DHT22;43277;52.672;6.984;2023-08-24T00:27:40;16.60;99.90
57434;DHT22;43277;52.672;6.984;2023-08-24T00:30:07;16.60;99.90
57434;DHT22;43277;52.672;6.984;2023-08-24T00:32:33;16.60;99.90
57434;DHT22;43277;52.672;6.984;2023-08-24T00:35:03;16.60;99.90
57434;DHT22;43277;52.672;6.984;2023-08-24T00:37:30;16.60;99.90
57434;DHT22;43277;52.672;6.984;2023-08-24T00:39:56;16.60;99.90
57434;DHT22;43277;52.672;6.984;2023-08-24T00:42:22;16.60;99.90
57434;DHT22;43277;52.672;6.984;2023-08-24T00:44:51;16.60;99.90
57434;DHT22;43277;52.672;6.984;2023-08-24T00:47:17;16.60;99.90
57434;DHT22;43277;52.672;6.984;2023-08-24T00:49:43;16.50;99.90
57434;DHT22;43277;52.672;6.984;2023-08-24T00:52:09;16.50;99.90
57434;DHT22;43277;52.672;6.984;2023-08-24T00:54:36;16.50;99.90
57434;DHT22;43277;52.672;6.984;2023-08-24T00:57:04;16.50;99.90
57434;DHT22;43277;52.672;6.984;2023-08-24T00:59:31;16.40;99.90
57434;DHT22;43277;52.672;6.984;2023-08-24T01:01:56;16.40;99.90
57434;DHT22;43277;52.672;6.984;2023-08-24T01:04:22;16.50;99.90
57434;DHT22;43277;52.672;6.984;2023-08-24T01:06:48;16.40;99.90
57434;DHT22;43277;52.672;6.984;2023-08-24T01:09:14;16.50;99.90
57434;DHT22;43277;52.672;6.984;2023-08-24T01:11:59;16.50;99.90
57434;DHT22;43277;52.672;6.984;2023-08-24T01:14:47;16.50;99.90
57434;DHT22;43277;52.672;6.984;2023-08-24T01:17:20;16.50;99.90
57434;DHT22;43277;52.672;6.984;2023-08-24T01:19:47;16.50;99.90
57434;DHT22;43277;52.672;6.984;2023-08-24T01:22:23;16.50;99.90
57434;DHT22;43277;52.672;6.984;2023-08-24T01:27:30;16.50;99.90
57434;DHT22;43277;52.672;6.984;2023-08-24T01:29:57;16.50;99.90
57434;DHT22;43277;52.672;6.984;2023-08-24T01:32:24;16.50;99.90
57434;DHT22;43277;52.672;6.984;2023-08-24T01:34:50;16.50;99.90
57434;DHT22;43277;52.672;6.984;2023-08-24T01:37:16;16.40;99.90
57434;DHT22;43277;52.672;6.984;2023-08-24T01:40:20;16.40;99.90
57434;DHT22;43277;52.672;6.984;2023-08-24T01:43:04;16.50;99.90
57434;DHT22;43277;52.672;6.984;2023-08-24T01:45:32;16.40;99.90
57434;DHT22;43277;52.672;6.984;2023-08-24T01:48:01;16.40;99.90
57434;DHT22;43277;52.672;6.984;2023-08-24T01:50:29;16.40;99.90
57434;DHT22;43277;52.672;6.984;2023-08-24T01:52:55;16.50;99.90
57434;DHT22;43277;52.672;6.984;2023-08-24T01:55:22;16.50;99.90
57434;DHT22;43277;52.672;6.984;2023-08-24T01:57:48;16.50;99.90
57434;DHT22;43277;52.672;6.984;2023-08-24T02:00:14;16.50;99.90
57434;DHT22;43277;52.672;6.984;2023-08-24T02:02:42;16.50;99.90
57434;DHT22;43277;52.672;6.984;2023-08-24T02:05:08;16.60;99.90
57434;DHT22;43277;52.672;6.984;2023-08-24T02:07:33;16.60;99.90
57434;DHT22;43277;52.672;6.984;2023-08-24T02:09:59;16.60;99.90
57434;DHT22;43277;52.672;6.984;2023-08-24T02:12:25;16.60;99.90
57434;DHT22;43277;52.672;6.984;2023-08-24T02:14:50;16.70;99.90
57434;DHT22;43277;52.672;6.984;2023-08-24T02:17:16;16.70;99.90
57434;DHT22;43277;52.672;6.984;2023-08-24T02:19:42;16.70;99.90
57434;DHT22;43277;52.672;6.984;2023-08-24T02:22:08;16.70;99.90
57434;DHT22;43277;52.672;6.984;2023-08-24T02:24:33;16.80;99.90
57434;DHT22;43277;52.672;6.984;2023-08-24T02:27:00;16.80;99.90
57434;DHT22;43277;52.672;6.984;2023-08-24T02:29:25;16.80;99.90
57434;DHT22;43277;52.672;6.984;2023-08-24T02:31:51;16.80;99.90
57434;DHT22;43277;52.672;6.984;2023-08-24T02:34:17;16.80;99.90
57434;DHT22;43277;52.672;6.984;2023-08-24T02:36:43;16.80;99.90
57434;DHT22;43277;52.672;6.984;2023-08-24T02:39:09;16.90;99.90
57434;DHT22;43277;52.672;6.984;2023-08-24T02:41:35;16.90;99.90
57434;DHT22;43277;52.672;6.984;2023-08-24T02:44:01;16.90;99.90
57434;DHT22;43277;52.672;6.984;2023-08-24T02:46:27;16.90;99.90
57434;DHT22;43277;52.672;6.984;2023-08-24T02:48:52;16.90;99.90
57434;DHT22;43277;52.672;6.984;2023-08-24T02:51:22;17.00;99.90
57434;DHT22;43277;52.672;6.984;2023-08-24T02:53:48;17.00;99.90
57434;DHT22;43277;52.672;6.984;2023-08-24T02:56:14;17.00;99.90
57434;DHT22;43277;52.672;6.984;2023-08-24T02:58:40;16.90;99.90
57434;DHT22;43277;52.672;6.984;2023-08-24T03:01:09;17.00;99.90
57434;DHT22;43277;52.672;6.984;2023-08-24T03:03:37;17.00;99.90
57434;DHT22;43277;52.672;6.984;2023-08-24T03:06:07;16.90;99.90
57434;DHT22;43277;52.672;6.984;2023-08-24T03:08:33;17.00;99.90
57434;DHT22;43277;52.672;6.984;2023-08-24T03:11:00;16.90;99.90
57434;DHT22;43277;52.672;6.984;2023-08-24T03:13:27;16.90;99.90
57434;DHT22;43277;52.672;6.984;2023-08-24T03:15:54;16.90;99.90
57434;DHT22;43277;52.672;6.984;2023-08-24T03:18:20;16.90;99.90
57434;DHT22;43277;52.672;6.984;2023-08-24T03:20:46;16.90;99.90
57434;DHT22;43277;52.672;6.984;2023-08-24T03:23:12;16.90;99.90
57434;DHT22;43277;52.672;6.984;2023-08-24T03:25:40;16.90;99.90
57434;DHT22;43277;52.672;6.984;2023-08-24T03:28:06;16.90;99.90
57434;DHT22;43277;52.672;6.984;2023-08-24T03:30:46;16.80;99.90
57434;DHT22;43277;52.672;6.984;2023-08-24T03:33:12;16.80;99.90
57434;DHT22;43277;52.672;6.984;2023-08-24T03:35:39;16.80;99.90
57434;DHT22;43277;52.672;6.984;2023-08-24T03:38:05;16.80;99.90
57434;DHT22;43277;52.672;6.984;2023-08-24T03:40:30;16.90;99.90
57434;DHT22;43277;52.672;6.984;2023-08-24T03:42:56;16.80;99.90
57434;DHT22;43277;52.672;6.984;2023-08-24T03:45:22;16.90;99.90
57434;DHT22;43277;52.672;6.984;2023-08-24T03:47:48;16.80;99.90
57434;DHT22;43277;52.672;6.984;2023-08-24T03:50:14;16.80;99.90
57434;DHT22;43277;52.672;6.984;2023-08-24T03:52:40;16.80;99.90
57434;DHT22;43277;52.672;6.984;2023-08-24T03:55:09;16.70;99.90
57434;DHT22;43277;52.672;6.984;2023-08-24T03:57:34;16.80;99.90
57434;DHT22;43277;52.672;6.984;2023-08-24T04:00:00;16.70;99.90
57434;DHT22;43277;52.672;6.984;2023-08-24T04:02:26;16.80;99.90
57434;DHT22;43277;52.672;6.984;2023-08-24T04:04:52;16.80;99.90
57434;DHT22;43277;52.672;6.984;2023-08-24T04:07:18;16.80;99.90
57434;DHT22;43277;52.672;6.984;2023-08-24T04:09:43;16.70;99.90
57434;DHT22;43277;52.672;6.984;2023-08-24T04:12:10;16.70;99.90
57434;DHT22;43277;52.672;6.984;2023-08-24T04:14:36;16.80;99.90
57434;DHT22;43277;52.672;6.984;2023-08-24T04:17:02;16.70;99.90
57434;DHT22;43277;52.672;6.984;2023-08-24T04:19:27;16.70;99.90
57434;DHT22;43277;52.672;6.984;2023-08-24T04:21:53;16.70;99.90
57434;DHT22;43277;52.672;6.984;2023-08-24T04:24:18;16.70;99.90
57434;DHT22;43277;52.672;6.984;2023-08-24T04:26:44;16.70;99.90
57434;DHT22;43277;52.672;6.984;2023-08-24T04:29:10;16.60;99.90
57434;DHT22;43277;52.672;6.984;2023-08-24T04:31:36;16.60;99.90
57434;DHT22;43277;52.672;6.984;2023-08-24T04:34:02;16.60;99.90
57434;DHT22;43277;52.672;6.984;2023-08-24T04:36:29;16.60;99.90
57434;DHT22;43277;52.672;6.984;2023-08-24T04:38:55;16.60;99.90
57434;DHT22;43277;52.672;6.984;2023-08-24T04:41:20;16.50;99.90
57434;DHT22;43277;52.672;6.984;2023-08-24T04:43:46;16.50;99.90
57434;DHT22;43277;52.672;6.984;2023-08-24T04:46:12;16.50;99.90
57434;DHT22;43277;52.672;6.984;2023-08-24T04:48:37;16.50;99.90
57434;DHT22;43277;52.672;6.984;2023-08-24T04:51:03;16.40;99.90
57434;DHT22;43277;52.672;6.984;2023-08-24T04:53:29;16.40;99.90
57434;DHT22;43277;52.672;6.984;2023-08-24T04:55:55;16.40;99.90
57434;DHT22;43277;52.672;6.984;2023-08-24T04:58:22;16.40;99.90
57434;DHT22;43277;52.672;6.984;2023-08-24T05:00:48;16.30;99.90
57434;DHT22;43277;52.672;6.984;2023-08-24T05:03:14;16.30;99.90
57434;DHT22;43277;52.672;6.984;2023-08-24T05:05:40;16.20;99.90
57434;DHT22;43277;52.672;6.984;2023-08-24T05:08:06;16.30;99.90
57434;DHT22;43277;52.672;6.984;2023-08-24T05:10:35;16.20;99.90
57434;DHT22;43277;52.672;6.984;2023-08-24T05:13:01;16.20;99.90
57434;DHT22;43277;52.672;6.984;2023-08-24T05:15:27;16.20;99.90
57434;DHT22;43277;52.672;6.984;2023-08-24T05:17:52;16.20;99.90
57434;DHT22;43277;52.672;6.984;2023-08-24T05:20:25;16.30;99.90
57434;DHT22;43277;52.672;6.984;2023-08-24T05:22:50;16.30;99.90
57434;DHT22;43277;52.672;6.984;2023-08-24T05:25:16;16.20;99.90
57434;DHT22;43277;52.672;6.984;2023-08-24T05:27:43;16.30;99.90
57434;DHT22;43277;52.672;6.984;2023-08-24T05:30:09;16.40;99.90
57434;DHT22;43277;52.672;6.984;2023-08-24T05:32:35;16.40;99.90
57434;DHT22;43277;52.672;6.984;2023-08-24T05:35:05;16.50;99.90
57434;DHT22;43277;52.672;6.984;2023-08-24T05:37:31;16.50;99.90
57434;DHT22;43277;52.672;6.984;2023-08-24T05:39:56;16.60;99.90
57434;DHT22;43277;52.672;6.984;2023-08-24T05:42:22;16.50;99.90
57434;DHT22;43277;52.672;6.984;2023-08-24T05:44:48;16.60;99.90
57434;DHT22;43277;52.672;6.984;2023-08-24T05:47:13;16.60;99.90
57434;DHT22;43277;52.672;6.984;2023-08-24T05:49:39;16.70;99.90
57434;DHT22;43277;52.672;6.984;2023-08-24T05:52:05;16.80;99.90
57434;DHT22;43277;52.672;6.984;2023-08-24T05:54:30;16.80;99.90
57434;DHT22;43277;52.672;6.984;2023-08-24T05:56:56;16.90;99.90
57434;DHT22;43277;52.672;6.984;2023-08-24T05:59:26;16.90;99.90
57434;DHT22;43277;52.672;6.984;2023-08-24T06:01:52;17.00;99.90
57434;DHT22;43277;52.672;6.984;2023-08-24T06:04:20;17.00;99.90
57434;DHT22;43277;52.672;6.984;2023-08-24T06:06:45;17.10;99.90
57434;DHT22;43277;52.672;6.984;2023-08-24T06:09:11;17.10;99.90
57434;DHT22;43277;52.672;6.984;2023-08-24T06:11:37;17.20;99.90
57434;DHT22;43277;52.672;6.984;2023-08-24T06:14:02;17.30;99.90
57434;DHT22;43277;52.672;6.984;2023-08-24T06:16:28;17.30;99.90
57434;DHT22;43277;52.672;6.984;2023-08-24T06:18:54;17.30;99.90
57434;DHT22;43277;52.672;6.984;2023-08-24T06:21:20;17.40;99.90
57434;DHT22;43277;52.672;6.984;2023-08-24T06:23:45;17.50;99.90
57434;DHT22;43277;52.672;6.984;2023-08-24T06:26:13;17.60;99.90
57434;DHT22;43277;52.672;6.984;2023-08-24T06:28:39;17.60;99.90
57434;DHT22;43277;52.672;6.984;2023-08-24T06:31:04;17.70;99.90
57434;DHT22;43277;52.672;6.984;2023-08-24T06:33:36;17.80;99.90
57434;DHT22;43277;52.672;6.984;2023-08-24T06:36:03;17.90;99.90
57434;DHT22;43277;52.672;6.984;2023-08-24T06:38:32;18.00;99.90
57434;DHT22;43277;52.672;6.984;2023-08-24T06:40:58;18.00;99.90
57434;DHT22;43277;52.672;6.984;2023-08-24T06:43:25;18.20;99.90
57434;DHT22;43277;52.672;6.984;2023-08-24T06:45:51;18.20;99.90
57434;DHT22;43277;52.672;6.984;2023-08-24T06:48:16;18.40;99.90
57434;DHT22;43277;52.672;6.984;2023-08-24T06:50:43;18.50;99.90
57434;DHT22;43277;52.672;6.984;2023-08-24T06:53:09;18.60;99.90
57434;DHT22;43277;52.672;6.984;2023-08-24T06:55:34;18.70;99.90
57434;DHT22;43277;52.672;6.984;2023-08-24T06:58:00;18.80;99.90
57434;DHT22;43277;52.672;6.984;2023-08-24T07:00:25;18.80;99.90
57434;DHT22;43277;52.672;6.984;2023-08-24T07:02:51;18.90;99.90
57434;DHT22;43277;52.672;6.984;2023-08-24T07:05:17;18.90;99.90
57434;DHT22;43277;52.672;6.984;2023-08-24T07:07:46;19.00;99.90
57434;DHT22;43277;52.672;6.984;2023-08-24T07:10:13;19.10;99.90
57434;DHT22;43277;52.672;6.984;2023-08-24T07:12:39;19.30;99.90
57434;DHT22;43277;52.672;6.984;2023-08-24T07:15:10;19.40;99.90
57434;DHT22;43277;52.672;6.984;2023-08-24T07:17:35;19.60;99.90
57434;DHT22;43277;52.672;6.984;2023-08-24T07:20:03;19.60;99.90
57434;DHT22;43277;52.672;6.984;2023-08-24T07:22:30;19.70;99.90
57434;DHT22;43277;52.672;6.984;2023-08-24T07:24:56;19.80;99.90
57434;DHT22;43277;52.672;6.984;2023-08-24T07:27:22;20.00;99.90
57434;DHT22;43277;52.672;6.984;2023-08-24T07:29:47;20.10;99.90
57434;DHT22;43277;52.672;6.984;2023-08-24T07:32:13;20.20;99.90
57434;DHT22;43277;52.672;6.984;2023-08-24T07:34:38;20.30;99.90
57434;DHT22;43277;52.672;6.984;2023-08-24T07:37:04;20.50;99.90
57434;DHT22;43277;52.672;6.984;2023-08-24T07:39:30;20.60;99.90
57434;DHT22;43277;52.672;6.984;2023-08-24T07:41:55;20.70;99.90
57434;DHT22;43277;52.672;6.984;2023-08-24T07:44:21;20.80;99.90
57434;DHT22;43277;52.672;6.984;2023-08-24T07:46:50;20.90;99.90
57434;DHT22;43277;52.672;6.984;2023-08-24T07:49:15;21.00;99.90
57434;DHT22;43277;52.672;6.984;2023-08-24T07:51:41;21.10;99.90
57434;DHT22;43277;52.672;6.984;2023-08-24T07:54:08;21.20;99.90
57434;DHT22;43277;52.672;6.984;2023-08-24T07:56:35;21.30;99.90
57434;DHT22;43277;52.672;6.984;2023-08-24T07:59:01;21.40;99.90
57434;DHT22;43277;52.672;6.984;2023-08-24T08:01:27;21.50;99.90
57434;DHT22;43277;52.672;6.984;2023-08-24T08:03:52;21.60;99.90
57434;DHT22;43277;52.672;6.984;2023-08-24T08:06:18;21.70;99.90
57434;DHT22;43277;52.672;6.984;2023-08-24T08:08:44;21.90;99.90
57434;DHT22;43277;52.672;6.984;2023-08-24T08:11:12;22.00;99.90
57434;DHT22;43277;52.672;6.984;2023-08-24T08:13:37;22.20;99.90
57434;DHT22;43277;52.672;6.984;2023-08-24T08:16:04;22.30;99.90
57434;DHT22;43277;52.672;6.984;2023-08-24T08:18:31;22.40;99.90
57434;DHT22;43277;52.672;6.984;2023-08-24T08:20:56;22.50;99.90
57434;DHT22;43277;52.672;6.984;2023-08-24T08:23:22;22.60;99.90
57434;DHT22;43277;52.672;6.984;2023-08-24T08:25:48;22.80;99.90
57434;DHT22;43277;52.672;6.984;2023-08-24T08:28:13;22.80;99.90
57434;DHT22;43277;52.672;6.984;2023-08-24T08:30:39;22.90;99.90
57434;DHT22;43277;52.672;6.984;2023-08-24T08:33:05;23.10;99.90
57434;DHT22;43277;52.672;6.984;2023-08-24T08:35:30;23.20;99.90
57434;DHT22;43277;52.672;6.984;2023-08-24T08:37:56;23.30;99.90
57434;DHT22;43277;52.672;6.984;2023-08-24T08:40:24;23.50;99.90
57434;DHT22;43277;52.672;6.984;2023-08-24T08:42:56;23.50;99.90
57434;DHT22;43277;52.672;6.984;2023-08-24T08:45:24;23.60;99.90
57434;DHT22;43277;52.672;6.984;2023-08-24T08:47:51;23.70;99.90
57434;DHT22;43277;52.672;6.984;2023-08-24T08:50:18;23.80;99.90
57434;DHT22;43277;52.672;6.984;2023-08-24T08:52:45;23.90;99.90
57434;DHT22;43277;52.672;6.984;2023-08-24T08:55:11;24.00;99.90
57434;DHT22;43277;52.672;6.984;2023-08-24T08:57:37;24.20;99.90
57434;DHT22;43277;52.672;6.984;2023-08-24T09:00:05;24.30;99.90
57434;DHT22;43277;52.672;6.984;2023-08-24T09:02:33;24.40;99.90
57434;DHT22;43277;52.672;6.984;2023-08-24T09:04:59;24.50;99.90
57434;DHT22;43277;52.672;6.984;2023-08-24T09:07:25;24.60;99.90
57434;DHT22;43277;52.672;6.984;2023-08-24T09:09:50;24.80;99.90
57434;DHT22;43277;52.672;6.984;2023-08-24T09:12:16;24.90;99.90
57434;DHT22;43277;52.672;6.984;2023-08-24T09:14:42;25.00;99.90
57434;DHT22;43277;52.672;6.984;2023-08-24T09:17:08;25.10;99.90
57434;DHT22;43277;52.672;6.984;2023-08-24T09:19:33;25.30;99.90
57434;DHT22;43277;52.672;6.984;2023-08-24T09:22:04;25.40;99.90
57434;DHT22;43277;52.672;6.984;2023-08-24T09:24:33;25.50;99.90
57434;DHT22;43277;52.672;6.984;2023-08-24T09:27:00;25.70;99.90
57434;DHT22;43277;52.672;6.984;2023-08-24T09:29:36;25.70;99.90
57434;DHT22;43277;52.672;6.984;2023-08-24T09:32:02;25.80;99.90
57434;DHT22;43277;52.672;6.984;2023-08-24T09:34:28;25.90;99.90
57434;DHT22;43277;52.672;6.984;2023-08-24T09:36:56;25.90;99.90
57434;DHT22;43277;52.672;6.984;2023-08-24T09:39:23;25.90;99.90
57434;DHT22;43277;52.672;6.984;2023-08-24T09:41:51;26.00;99.90
57434;DHT22;43277;52.672;6.984;2023-08-24T09:44:17;26.20;99.90
57434;DHT22;43277;52.672;6.984;2023-08-24T09:46:43;26.30;99.90
57434;DHT22;43277;52.672;6.984;2023-08-24T09:49:10;26.50;99.90
57434;DHT22;43277;52.672;6.984;2023-08-24T09:51:38;26.70;99.90
57434;DHT22;43277;52.672;6.984;2023-08-24T09:54:08;26.90;99.90
57434;DHT22;43277;52.672;6.984;2023-08-24T09:56:41;27.10;99.90
57434;DHT22;43277;52.672;6.984;2023-08-24T09:59:17;27.20;99.90
57434;DHT22;43277;52.672;6.984;2023-08-24T10:01:49;27.30;99.90
57434;DHT22;43277;52.672;6.984;2023-08-24T10:04:20;27.30;99.90
57434;DHT22;43277;52.672;6.984;2023-08-24T10:06:55;27.20;99.90
57434;DHT22;43277;52.672;6.984;2023-08-24T10:09:33;27.20;99.90
57434;DHT22;43277;52.672;6.984;2023-08-24T10:12:03;27.20;99.90
57434;DHT22;43277;52.672;6.984;2023-08-24T10:14:36;27.10;99.90
57434;DHT22;43277;52.672;6.984;2023-08-24T10:17:05;27.10;99.90
57434;DHT22;43277;52.672;6.984;2023-08-24T10:19:32;27.10;99.90
57434;DHT22;43277;52.672;6.984;2023-08-24T10:22:00;27.10;99.90
57434;DHT22;43277;52.672;6.984;2023-08-24T10:24:26;27.10;99.60
57434;DHT22;43277;52.672;6.984;2023-08-24T10:26:52;27.00;99.70
57434;DHT22;43277;52.672;6.984;2023-08-24T10:29:20;26.90;99.70
57434;DHT22;43277;52.672;6.984;2023-08-24T10:31:46;26.80;99.90
57434;DHT22;43277;52.672;6.984;2023-08-24T10:34:14;26.70;99.70
57434;DHT22;43277;52.672;6.984;2023-08-24T10:36:40;26.60;99.70
57434;DHT22;43277;52.672;6.984;2023-08-24T10:39:06;26.50;99.90
57434;DHT22;43277;52.672;6.984;2023-08-24T10:41:49;26.40;99.70
57434;DHT22;43277;52.672;6.984;2023-08-24T10:44:44;26.40;99.90
57434;DHT22;43277;52.672;6.984;2023-08-24T10:49:43;26.10;99.90
57434;DHT22;43277;52.672;6.984;2023-08-24T10:52:30;26.10;99.90
57434;DHT22;43277;52.672;6.984;2023-08-24T10:55:00;26.00;99.90
57434;DHT22;43277;52.672;6.984;2023-08-24T10:57:37;26.00;99.80
57434;DHT22;43277;52.672;6.984;2023-08-24T11:02:48;25.90;99.90
57434;DHT22;43277;52.672;6.984;2023-08-24T11:05:24;25.90;99.90
57434;DHT22;43277;52.672;6.984;2023-08-24T11:08:04;25.90;99.90
57434;DHT22;43277;52.672;6.984;2023-08-24T11:18:31;26.00;99.90
57434;DHT22;43277;52.672;6.984;2023-08-24T11:21:06;26.10;99.80
57434;DHT22;43277;52.672;6.984;2023-08-24T11:23:32;26.10;99.40
57434;DHT22;43277;52.672;6.984;2023-08-24T11:26:00;26.10;99.40
57434;DHT22;43277;52.672;6.984;2023-08-24T11:28:27;26.20;99.40
57434;DHT22;43277;52.672;6.984;2023-08-24T11:30:54;26.30;99.90
57434;DHT22;43277;52.672;6.984;2023-08-24T11:33:31;26.40;99.90
57434;DHT22;43277;52.672;6.984;2023-08-24T11:35:58;26.40;99.70
57434;DHT22;43277;52.672;6.984;2023-08-24T11:38:25;26.50;99.90
57434;DHT22;43277;52.672;6.984;2023-08-24T11:40:50;26.60;99.90
57434;DHT22;43277;52.672;6.984;2023-08-24T11:43:25;26.80;99.90
57434;DHT22;43277;52.672;6.984;2023-08-24T11:45:54;26.90;99.90
57434;DHT22;43277;52.672;6.984;2023-08-24T11:48:24;26.90;99.20
57434;DHT22;43277;52.672;6.984;2023-08-24T11:50:51;26.90;99.00
57434;DHT22;43277;52.672;6.984;2023-08-24T11:53:17;27.00;99.30
57434;DHT22;43277;52.672;6.984;2023-08-24T11:55:43;26.90;99.20
57434;DHT22;43277;52.672;6.984;2023-08-24T11:58:15;27.00;98.50
57434;DHT22;43277;52.672;6.984;2023-08-24T12:00:45;27.00;99.10
57434;DHT22;43277;52.672;6.984;2023-08-24T12:03:12;26.90;99.90
57434;DHT22;43277;52.672;6.984;2023-08-24T12:05:37;26.90;99.90
57434;DHT22;43277;52.672;6.984;2023-08-24T12:08:06;26.80;99.90
57434;DHT22;43277;52.672;6.984;2023-08-24T12:10:32;26.70;99.90
57434;DHT22;43277;52.672;6.984;2023-08-24T12:13:05;26.70;99.70
57434;DHT22;43277;52.672;6.984;2023-08-24T12:15:33;26.60;99.90
57434;DHT22;43277;52.672;6.984;2023-08-24T12:18:10;26.50;99.90
57434;DHT22;43277;52.672;6.984;2023-08-24T12:20:36;26.40;99.60
57434;DHT22;43277;52.672;6.984;2023-08-24T12:23:03;26.40;99.90
57434;DHT22;43277;52.672;6.984;2023-08-24T12:25:29;26.30;99.90
57434;DHT22;43277;52.672;6.984;2023-08-24T12:28:14;26.30;99.90
57434;DHT22;43277;52.672;6.984;2023-08-24T12:30:49;26.30;99.90
57434;DHT22;43277;52.672;6.984;2023-08-24T12:33:41;26.30;99.90
57434;DHT22;43277;52.672;6.984;2023-08-24T12:36:07;26.50;99.90
57434;DHT22;43277;52.672;6.984;2023-08-24T12:38:33;26.80;99.90
57434;DHT22;43277;52.672;6.984;2023-08-24T12:41:00;27.10;99.90
57434;DHT22;43277;52.672;6.984;2023-08-24T12:43:26;27.50;99.90
57434;DHT22;43277;52.672;6.984;2023-08-24T12:45:52;27.90;99.30
57434;DHT22;43277;52.672;6.984;2023-08-24T12:48:17;28.30;99.70
57434;DHT22;43277;52.672;6.984;2023-08-24T12:50:43;28.70;98.20
57434;DHT22;43277;52.672;6.984;2023-08-24T12:53:09;29.10;96.00
57434;DHT22;43277;52.672;6.984;2023-08-24T12:55:36;29.40;98.10
57434;DHT22;43277;52.672;6.984;2023-08-24T12:58:02;29.70;96.90
57434;DHT22;43277;52.672;6.984;2023-08-24T13:00:28;30.10;95.30
57434;DHT22;43277;52.672;6.984;2023-08-24T13:02:55;30.30;95.60
57434;DHT22;43277;52.672;6.984;2023-08-24T13:05:20;30.40;95.30
57434;DHT22;43277;52.672;6.984;2023-08-24T13:07:46;30.50;94.30
57434;DHT22;43277;52.672;6.984;2023-08-24T13:10:12;30.60;92.30
57434;DHT22;43277;52.672;6.984;2023-08-24T13:12:38;30.60;92.50
57434;DHT22;43277;52.672;6.984;2023-08-24T13:15:04;30.50;94.10
57434;DHT22;43277;52.672;6.984;2023-08-24T13:17:30;30.30;93.90
57434;DHT22;43277;52.672;6.984;2023-08-24T13:19:56;30.10;93.70
57434;DHT22;43277;52.672;6.984;2023-08-24T13:22:22;29.90;93.60
57434;DHT22;43277;52.672;6.984;2023-08-24T13:24:48;29.60;93.60
57434;DHT22;43277;52.672;6.984;2023-08-24T13:27:13;29.40;94.40
57434;DHT22;43277;52.672;6.984;2023-08-24T13:29:42;29.20;95.30
57434;DHT22;43277;52.672;6.984;2023-08-24T13:32:08;28.90;97.40
57434;DHT22;43277;52.672;6.984;2023-08-24T13:34:34;28.60;98.50
57434;DHT22;43277;52.672;6.984;2023-08-24T13:36:59;28.40;98.50
57434;DHT22;43277;52.672;6.984;2023-08-24T13:39:26;28.30;98.70
57434;DHT22;43277;52.672;6.984;2023-08-24T13:41:54;28.30;99.30
57434;DHT22;43277;52.672;6.984;2023-08-24T13:44:20;28.20;99.50
57434;DHT22;43277;52.672;6.984;2023-08-24T13:46:46;28.20;99.90
57434;DHT22;43277;52.672;6.984;2023-08-24T13:49:11;28.20;99.90
57434;DHT22;43277;52.672;6.984;2023-08-24T13:51:37;28.20;99.20
57434;DHT22;43277;52.672;6.984;2023-08-24T13:54:11;28.20;99.90
57434;DHT22;43277;52.672;6.984;2023-08-24T13:56:37;28.10;99.90
57434;DHT22;43277;52.672;6.984;2023-08-24T13:59:03;27.90;99.90
57434;DHT22;43277;52.672;6.984;2023-08-24T14:01:29;27.70;99.90
57434;DHT22;43277;52.672;6.984;2023-08-24T14:03:54;27.60;99.90
57434;DHT22;43277;52.672;6.984;2023-08-24T14:06:20;27.40;99.90
57434;DHT22;43277;52.672;6.984;2023-08-24T14:08:46;27.10;99.90
57434;DHT22;43277;52.672;6.984;2023-08-24T14:11:12;26.90;99.90
57434;DHT22;43277;52.672;6.984;2023-08-24T14:13:37;26.70;99.90
57434;DHT22;43277;52.672;6.984;2023-08-24T14:16:03;26.50;99.90
57434;DHT22;43277;52.672;6.984;2023-08-24T14:18:29;26.30;99.90
57434;DHT22;43277;52.672;6.984;2023-08-24T14:20:56;26.20;99.90
57434;DHT22;43277;52.672;6.984;2023-08-24T14:23:21;26.00;99.90
57434;DHT22;43277;52.672;6.984;2023-08-24T14:25:47;25.80;99.90
57434;DHT22;43277;52.672;6.984;2023-08-24T14:28:13;25.60;99.90
57434;DHT22;43277;52.672;6.984;2023-08-24T14:30:39;25.50;99.90
57434;DHT22;43277;52.672;6.984;2023-08-24T14:33:05;25.40;99.90
57434;DHT22;43277;52.672;6.984;2023-08-24T14:35:31;25.30;99.90
57434;DHT22;43277;52.672;6.984;2023-08-24T14:37:57;25.20;99.90
57434;DHT22;43277;52.672;6.984;2023-08-24T14:40:23;25.20;99.90
57434;DHT22;43277;52.672;6.984;2023-08-24T14:42:49;25.20;99.90
57434;DHT22;43277;52.672;6.984;2023-08-24T14:45:15;25.10;99.90
57434;DHT22;43277;52.672;6.984;2023-08-24T14:47:41;25.10;99.90
57434;DHT22;43277;52.672;6.984;2023-08-24T14:50:07;25.10;99.90
57434;DHT22;43277;52.672;6.984;2023-08-24T14:52:33;25.10;99.90
57434;DHT22;43277;52.672;6.984;2023-08-24T14:54:58;25.10;99.90
57434;DHT22;43277;52.672;6.984;2023-08-24T14:57:24;25.20;99.90
57434;DHT22;43277;52.672;6.984;2023-08-24T14:59:50;25.20;99.90
57434;DHT22;43277;52.672;6.984;2023-08-24T15:02:16;25.20;99.90
57434;DHT22;43277;52.672;6.984;2023-08-24T15:04:41;25.30;99.90
57434;DHT22;43277;52.672;6.984;2023-08-24T15:07:07;25.20;99.90
57434;DHT22;43277;52.672;6.984;2023-08-24T15:09:32;25.30;99.90
57434;DHT22;43277;52.672;6.984;2023-08-24T15:11:58;25.30;99.90
57434;DHT22;43277;52.672;6.984;2023-08-24T15:14:24;25.30;99.90
57434;DHT22;43277;52.672;6.984;2023-08-24T15:16:49;25.30;99.90
57434;DHT22;43277;52.672;6.984;2023-08-24T15:19:15;25.30;99.90
57434;DHT22;43277;52.672;6.984;2023-08-24T15:21:40;25.20;99.90
57434;DHT22;43277;52.672;6.984;2023-08-24T15:24:06;25.20;99.90
57434;DHT22;43277;52.672;6.984;2023-08-24T15:26:32;25.20;99.90
57434;DHT22;43277;52.672;6.984;2023-08-24T15:31:35;25.20;99.90
57434;DHT22;43277;52.672;6.984;2023-08-24T15:34:00;25.20;99.90
57434;DHT22;43277;52.672;6.984;2023-08-24T15:36:26;25.20;99.90
57434;DHT22;43277;52.672;6.984;2023-08-24T15:38:52;25.20;99.90
57434;DHT22;43277;52.672;6.984;2023-08-24T15:41:18;25.30;99.90
57434;DHT22;43277;52.672;6.984;2023-08-24T15:43:43;25.20;99.90
57434;DHT22;43277;52.672;6.984;2023-08-24T15:46:09;25.30;99.90
57434;DHT22;43277;52.672;6.984;2023-08-24T15:48:34;25.30;99.90